createdAt,value
2023-05-01T00:01:46.269Z,7.40
2023-05-01T00:04:21.833Z,5.80
2023-05-01T00:06:55.135Z,5.87
2023-05-01T00:09:28.620Z,6.10
2023-05-01T00:12:03.051Z,6.13
2023-05-01T00:14:36.228Z,6.20
2023-05-01T00:17:09.918Z,5.80
2023-05-01T00:19:43.124Z,5.17
2023-05-01T00:22:16.412Z,5.43
2023-05-01T00:24:50.271Z,4.53
2023-05-01T00:27:23.520Z,5.00
2023-05-01T00:29:56.961Z,6.10
2023-05-01T00:32:30.518Z,4.43
2023-05-01T00:35:03.794Z,4.47
2023-05-01T00:37:37.309Z,5.57
2023-05-01T00:40:10.624Z,4.63
2023-05-01T00:42:43.836Z,4.50
2023-05-01T00:45:17.135Z,6.00
2023-05-01T00:47:50.381Z,4.97
2023-05-01T00:50:23.671Z,5.70
2023-05-01T00:52:57.063Z,5.20
2023-05-01T00:55:31.177Z,5.30
2023-05-01T00:58:04.437Z,3.93
2023-05-01T01:00:37.660Z,6.30
2023-05-01T01:03:11.730Z,5.53
2023-05-01T01:05:52.267Z,5.80
2023-05-01T01:08:36.271Z,5.73
2023-05-01T01:11:12.834Z,7.37
2023-05-01T01:14:12.415Z,4.00
2023-05-01T01:16:57.792Z,4.10
2023-05-01T01:19:31.006Z,5.60
2023-05-01T01:22:08.896Z,7.40
2023-05-01T01:25:00.931Z,4.90
2023-05-01T01:27:34.074Z,5.93
2023-05-01T01:30:17.001Z,6.03
2023-05-01T01:33:09.277Z,4.73
2023-05-01T01:35:43.761Z,6.47
2023-05-01T01:38:24.274Z,4.67
2023-05-01T01:41:19.604Z,5.37
2023-05-01T01:43:59.166Z,4.97
2023-05-01T01:46:36.392Z,6.50
2023-05-01T01:49:14.115Z,5.10
2023-05-01T01:51:47.925Z,7.47
2023-05-01T01:54:24.750Z,7.10
2023-05-01T01:57:00.343Z,5.93
2023-05-01T01:59:35.346Z,6.40
2023-05-01T02:02:08.754Z,5.60
2023-05-01T02:04:43.136Z,8.03
2023-05-01T02:07:17.863Z,5.37
2023-05-01T02:09:52.469Z,6.03
2023-05-01T02:12:26.899Z,5.40
2023-05-01T02:15:01.027Z,6.03
2023-05-01T02:17:35.810Z,6.13
2023-05-01T02:20:09.890Z,5.57
2023-05-01T02:22:43.367Z,6.10
2023-05-01T02:25:16.853Z,7.60
2023-05-01T02:27:53.493Z,7.10
2023-05-01T02:30:26.895Z,6.20
2023-05-01T02:33:00.235Z,3.70
2023-05-01T02:35:33.738Z,5.17
2023-05-01T02:38:07.454Z,4.53
2023-05-01T02:40:40.966Z,3.90
2023-05-01T02:43:17.254Z,5.90
2023-05-01T02:45:51.995Z,5.67
2023-05-01T02:48:27.859Z,5.50
2023-05-01T02:51:01.806Z,4.80
2023-05-01T02:53:35.400Z,4.73
2023-05-01T02:56:09.184Z,3.57
2023-05-01T02:58:43.016Z,5.50
2023-05-01T03:01:16.401Z,4.40
2023-05-01T03:03:49.672Z,4.60
2023-05-01T03:06:22.882Z,6.23
2023-05-01T03:08:56.110Z,4.90
2023-05-01T03:11:29.332Z,5.60
2023-05-01T03:14:02.536Z,6.23
2023-05-01T03:16:35.931Z,8.43
2023-05-01T03:19:09.267Z,6.10
2023-05-01T03:21:42.438Z,6.53
2023-05-01T03:24:15.636Z,8.47
2023-05-01T03:26:48.905Z,5.53
2023-05-01T03:29:22.146Z,5.93
2023-05-01T03:31:57.535Z,9.33
2023-05-01T03:34:30.766Z,6.10
2023-05-01T03:37:04.471Z,6.43
2023-05-01T03:39:37.741Z,8.87
2023-05-01T03:42:10.944Z,6.37
2023-05-01T03:44:44.207Z,6.80
2023-05-01T03:47:17.404Z,5.67
2023-05-01T03:49:50.845Z,7.90
2023-05-01T03:52:24.024Z,9.37
2023-05-01T03:54:57.234Z,6.80
2023-05-01T03:57:30.411Z,6.30
2023-05-01T04:00:05.408Z,4.93
2023-05-01T04:02:38.759Z,6.53
2023-05-01T04:05:12.084Z,5.63
2023-05-01T04:07:45.532Z,8.97
2023-05-01T04:10:18.789Z,8.83
2023-05-01T04:12:51.996Z,7.17
2023-05-01T04:15:25.214Z,6.70
2023-05-01T04:17:58.566Z,6.57
2023-05-01T04:20:31.834Z,7.77
2023-05-01T04:23:05.431Z,7.57
2023-05-01T04:25:38.623Z,9.33
2023-05-01T04:28:12.555Z,7.67
2023-05-01T04:30:45.821Z,8.43
2023-05-01T04:33:18.983Z,7.17
2023-05-01T04:35:52.352Z,8.50
2023-05-01T04:38:25.540Z,7.50
2023-05-01T04:41:04.100Z,7.47
2023-05-01T04:43:37.366Z,9.03
2023-05-01T04:46:12.888Z,7.60
2023-05-01T04:48:46.099Z,6.77
2023-05-01T04:51:20.634Z,7.20
2023-05-01T04:53:54.116Z,6.03
2023-05-01T04:56:30.137Z,5.57
2023-05-01T04:59:03.297Z,7.60
2023-05-01T05:01:39.649Z,6.90
2023-05-01T05:04:13.051Z,5.43
2023-05-01T05:06:46.537Z,5.90
2023-05-01T05:09:20.260Z,4.10
2023-05-01T05:11:53.603Z,7.43
2023-05-01T05:14:26.801Z,6.23
2023-05-01T05:17:00.483Z,6.33
2023-05-01T05:19:37.342Z,6.80
2023-05-01T05:22:12.785Z,5.60
2023-05-01T05:24:47.004Z,5.83
2023-05-01T05:27:20.595Z,5.30
2023-05-01T05:29:54.023Z,5.07
2023-05-01T05:32:27.395Z,5.80
2023-05-01T05:35:07.890Z,6.70
2023-05-01T05:37:41.626Z,6.00
2023-05-01T05:40:15.875Z,5.50
2023-05-01T05:42:49.115Z,6.73
2023-05-01T05:45:23.425Z,5.97
2023-05-01T05:47:57.042Z,7.50
2023-05-01T05:50:30.578Z,6.10
2023-05-01T05:53:03.796Z,5.20
2023-05-01T05:55:37.016Z,7.07
2023-05-01T05:58:10.316Z,5.87
2023-05-01T06:00:43.686Z,5.10
2023-05-01T06:03:17.710Z,4.87
2023-05-01T06:05:51.085Z,4.77
2023-05-01T06:08:24.339Z,7.60
2023-05-01T06:10:58.867Z,6.00
2023-05-01T06:13:33.001Z,6.40
2023-05-01T06:16:07.544Z,5.40
2023-05-01T06:18:41.161Z,5.23
2023-05-01T06:21:14.723Z,4.80
2023-05-01T06:23:48.108Z,5.80
2023-05-01T06:26:21.738Z,5.07
2023-05-01T06:28:55.306Z,4.73
2023-05-01T06:31:28.977Z,6.00
2023-05-01T06:34:02.379Z,5.63
2023-05-01T06:36:35.888Z,7.27
2023-05-01T06:39:09.366Z,5.50
2023-05-01T06:41:42.791Z,4.87
2023-05-01T06:44:16.445Z,4.83
2023-05-01T06:46:49.914Z,6.40
2023-05-01T06:49:23.345Z,4.80
2023-05-01T06:51:56.578Z,7.10
2023-05-01T06:54:29.822Z,5.47
2023-05-01T06:57:03.112Z,5.37
2023-05-01T06:59:36.382Z,5.70
2023-05-01T07:02:09.584Z,5.50
2023-05-01T07:04:44.427Z,5.50
2023-05-01T07:07:17.705Z,6.70
2023-05-01T07:09:50.975Z,7.40
2023-05-01T07:12:24.161Z,5.07
2023-05-01T07:14:57.448Z,4.97
2023-05-01T07:17:30.715Z,5.10
2023-05-01T07:20:05.128Z,3.97
2023-05-01T07:22:38.302Z,4.30
2023-05-01T07:25:11.632Z,3.97
2023-05-01T07:27:44.819Z,4.50
2023-05-01T07:30:18.014Z,4.60
2023-05-01T07:32:51.281Z,3.97
2023-05-01T07:35:24.727Z,3.60
2023-05-01T07:37:57.985Z,2.90
2023-05-01T07:40:34.449Z,3.27
2023-05-01T07:43:11.034Z,3.00
2023-05-01T07:45:55.066Z,2.37
2023-05-01T07:48:29.055Z,3.70
2023-05-01T07:51:03.611Z,4.27
2023-05-01T07:53:36.938Z,5.00
2023-05-01T07:56:10.628Z,3.80
2023-05-01T07:58:43.990Z,2.90
2023-05-01T08:01:17.443Z,3.20
2023-05-01T08:03:51.152Z,3.17
2023-05-01T08:06:24.525Z,3.93
2023-05-01T08:08:57.720Z,3.70
2023-05-01T08:11:31.703Z,3.77
2023-05-01T08:14:04.937Z,3.03
2023-05-01T08:16:38.637Z,3.40
2023-05-01T08:19:11.933Z,2.90
2023-05-01T08:21:45.881Z,3.73
2023-05-01T08:24:19.096Z,3.37
2023-05-01T08:26:52.881Z,3.80
2023-05-01T08:29:26.071Z,2.57
2023-05-01T08:31:59.465Z,3.30
2023-05-01T08:34:33.368Z,3.03
2023-05-01T08:37:06.776Z,4.40
2023-05-01T08:39:39.953Z,3.33
2023-05-01T08:42:13.627Z,3.53
2023-05-01T08:44:47.188Z,3.87
2023-05-01T08:47:20.569Z,4.17
2023-05-01T08:49:54.569Z,3.10
2023-05-01T08:52:28.085Z,3.77
2023-05-01T08:55:01.507Z,3.70
2023-05-01T08:57:35.865Z,3.20
2023-05-01T09:00:11.778Z,3.20
2023-05-01T09:02:45.521Z,3.53
2023-05-01T09:05:19.746Z,3.20
2023-05-01T09:07:52.938Z,4.17
2023-05-01T09:10:27.178Z,3.73
2023-05-01T09:13:07.124Z,4.20
2023-05-01T09:15:40.521Z,4.50
2023-05-01T09:18:13.868Z,3.70
2023-05-01T09:20:47.411Z,3.37
2023-05-01T09:23:20.864Z,3.63
2023-05-01T09:25:54.633Z,4.00
2023-05-01T09:28:41.742Z,3.30
2023-05-01T09:31:22.752Z,4.37
2023-05-01T09:33:57.283Z,4.00
2023-05-01T09:36:31.644Z,3.73
2023-05-01T09:39:05.055Z,4.00
2023-05-01T09:41:51.487Z,4.20
2023-05-01T09:44:25.522Z,3.60
2023-05-01T09:46:58.893Z,2.87
2023-05-01T09:49:48.881Z,2.90
2023-05-01T09:52:22.182Z,3.60
2023-05-01T09:55:14.203Z,3.93
2023-05-01T09:57:48.025Z,3.47
2023-05-01T10:00:22.298Z,3.90
2023-05-01T10:02:56.109Z,4.30
2023-05-01T10:05:43.386Z,3.80
2023-05-01T10:08:16.728Z,4.10
2023-05-01T10:11:08.124Z,4.43
2023-05-01T10:13:41.400Z,3.80
2023-05-01T10:16:31.019Z,3.50
2023-05-01T10:19:04.754Z,4.00
2023-05-01T10:21:38.011Z,4.43
2023-05-01T10:24:11.625Z,3.90
2023-05-01T10:26:44.927Z,3.50
2023-05-01T10:29:20.217Z,5.60
2023-05-01T10:31:53.858Z,3.03
2023-05-01T10:34:28.518Z,3.83
2023-05-01T10:37:03.961Z,3.63
2023-05-01T10:39:37.803Z,2.70
2023-05-01T10:42:17.998Z,2.97
2023-05-01T10:44:51.248Z,3.70
2023-05-01T10:47:28.258Z,4.23
2023-05-01T10:50:04.755Z,2.73
2023-05-01T10:53:01.304Z,4.53
2023-05-01T10:55:36.612Z,3.80
2023-05-01T10:58:10.907Z,4.07
2023-05-01T11:00:44.097Z,3.43
2023-05-01T11:03:20.318Z,3.63
2023-05-01T11:06:05.507Z,3.30
2023-05-01T11:08:39.793Z,3.50
2023-05-01T11:11:22.890Z,4.30
2023-05-01T11:14:05.900Z,3.03
2023-05-01T11:16:42.107Z,3.60
2023-05-01T11:19:21.873Z,3.70
2023-05-01T11:21:56.148Z,5.43
2023-05-01T11:24:35.623Z,2.57
2023-05-01T11:27:09.434Z,3.30
2023-05-01T11:29:45.316Z,2.47
2023-05-01T11:32:19.890Z,3.17
2023-05-01T11:34:53.615Z,4.23
2023-05-01T11:37:42.627Z,2.73
2023-05-01T11:40:23.323Z,3.10
2023-05-01T11:43:09.447Z,2.77
2023-05-01T11:45:42.642Z,3.30
2023-05-01T11:48:16.511Z,3.13
2023-05-01T11:50:50.040Z,3.27
2023-05-01T11:53:24.157Z,3.50
2023-05-01T11:55:59.283Z,3.37
2023-05-01T11:58:33.798Z,3.03
2023-05-01T12:01:07.864Z,2.20
2023-05-01T12:03:42.485Z,2.60
2023-05-01T12:06:16.077Z,3.00
2023-05-01T12:08:51.320Z,1.93
2023-05-01T12:11:24.788Z,3.13
2023-05-01T12:13:58.134Z,2.43
2023-05-01T12:16:32.344Z,2.27
2023-05-01T12:19:05.566Z,2.47
2023-05-01T12:21:38.845Z,2.00
2023-05-01T12:24:15.007Z,2.20
2023-05-01T12:27:00.357Z,2.20
2023-05-01T12:29:47.063Z,2.60
2023-05-01T12:32:20.368Z,2.50
2023-05-01T12:34:53.660Z,2.53
2023-05-01T12:37:33.559Z,2.07
2023-05-01T12:40:07.287Z,1.60
2023-05-01T12:42:40.599Z,1.40
2023-05-01T12:45:15.591Z,1.83
2023-05-01T12:47:49.009Z,1.77
2023-05-01T12:50:22.242Z,2.20
2023-05-01T12:52:56.132Z,1.80
2023-05-01T12:55:29.350Z,1.80
2023-05-01T12:58:02.532Z,1.50
2023-05-01T13:00:47.784Z,1.63
2023-05-01T13:03:25.562Z,1.57
2023-05-01T13:05:59.958Z,1.80
2023-05-01T13:08:34.275Z,1.83
2023-05-01T13:11:12.839Z,2.00
2023-05-01T13:13:46.612Z,2.03
2023-05-01T13:16:20.418Z,2.50
2023-05-01T13:18:53.850Z,2.10
2023-05-01T13:21:27.051Z,2.20
2023-05-01T13:24:01.740Z,2.40
2023-05-01T13:26:36.359Z,2.43
2023-05-01T13:29:14.391Z,1.97
2023-05-01T13:31:47.641Z,2.50
2023-05-01T13:34:41.146Z,2.60
2023-05-01T13:37:14.447Z,2.13
2023-05-01T13:39:47.937Z,1.30
2023-05-01T13:42:25.028Z,1.93
2023-05-01T13:44:58.570Z,1.77
2023-05-01T13:47:31.778Z,2.03
2023-05-01T13:50:05.193Z,2.20
2023-05-01T13:52:42.866Z,2.17
2023-05-01T13:55:18.021Z,1.63
2023-05-01T13:57:51.293Z,2.00
2023-05-01T14:00:24.523Z,1.60
2023-05-01T14:02:59.611Z,1.70
2023-05-01T14:05:32.909Z,1.37
2023-05-01T14:08:07.030Z,2.17
2023-05-01T14:10:40.257Z,1.63
2023-05-01T14:13:14.402Z,1.60
2023-05-01T14:15:49.261Z,2.00
2023-05-01T14:18:22.766Z,1.97
2023-05-01T14:20:56.166Z,1.60
2023-05-01T14:23:30.196Z,1.70
2023-05-01T14:26:04.882Z,2.00
2023-05-01T14:28:43.720Z,1.90
2023-05-01T14:31:31.925Z,1.27
2023-05-01T14:34:07.033Z,1.70
2023-05-01T14:36:40.209Z,1.37
2023-05-01T14:39:15.755Z,2.47
2023-05-01T14:41:49.024Z,2.07
2023-05-01T14:44:27.869Z,1.67
2023-05-01T14:47:01.831Z,2.40
2023-05-01T14:49:35.921Z,1.50
2023-05-01T14:52:10.620Z,2.40
2023-05-01T14:54:46.513Z,2.30
2023-05-01T14:57:19.946Z,2.20
2023-05-01T14:59:53.180Z,1.77
2023-05-01T15:02:26.522Z,1.83
2023-05-01T15:05:01.824Z,2.20
2023-05-01T15:07:35.064Z,2.17
2023-05-01T15:10:08.724Z,2.00
2023-05-01T15:12:41.881Z,2.30
2023-05-01T15:15:15.253Z,1.90
2023-05-01T15:17:48.518Z,2.07
2023-05-01T15:20:21.751Z,2.13
2023-05-01T15:22:55.128Z,2.53
2023-05-01T15:25:28.473Z,2.03
2023-05-01T15:28:01.871Z,1.87
2023-05-01T15:30:35.415Z,2.47
2023-05-01T15:33:08.673Z,2.80
2023-05-01T15:35:42.314Z,2.60
2023-05-01T15:38:15.498Z,2.30
2023-05-01T15:40:50.099Z,2.43
2023-05-01T15:43:23.486Z,2.20
2023-05-01T15:45:59.261Z,2.70
2023-05-01T15:48:33.633Z,2.40
2023-05-01T15:51:06.973Z,2.17
2023-05-01T15:53:40.142Z,2.50
2023-05-01T15:56:13.333Z,2.03
2023-05-01T15:58:46.627Z,3.37
2023-05-01T16:01:19.852Z,2.07
2023-05-01T16:03:53.088Z,2.40
2023-05-01T16:06:28.104Z,2.30
2023-05-01T16:09:01.565Z,2.60
2023-05-01T16:11:34.747Z,2.53
2023-05-01T16:14:12.613Z,2.53
2023-05-01T16:16:46.142Z,1.90
2023-05-01T16:19:19.548Z,2.47
2023-05-01T16:21:52.948Z,2.67
2023-05-01T16:24:26.467Z,2.13
2023-05-01T16:27:00.273Z,2.10
2023-05-01T16:29:34.156Z,2.73
2023-05-01T16:34:44.863Z,2.50
2023-05-01T16:37:18.156Z,3.47
2023-05-01T16:39:51.741Z,2.30
2023-05-01T16:42:24.996Z,2.20
2023-05-01T16:44:58.292Z,2.30
2023-05-01T16:47:32.772Z,1.80
2023-05-01T16:50:09.881Z,2.23
2023-05-01T16:52:43.107Z,2.10
2023-05-01T16:55:16.529Z,1.87
2023-05-01T16:57:52.065Z,2.17
2023-05-01T17:00:29.210Z,2.87
2023-05-01T17:03:02.797Z,3.13
2023-05-01T17:05:36.144Z,2.60
2023-05-01T17:08:09.420Z,3.13
2023-05-01T17:10:44.664Z,2.60
2023-05-01T17:13:17.966Z,2.73
2023-05-01T17:15:52.610Z,2.60
2023-05-01T17:18:25.955Z,3.53
2023-05-01T17:20:59.438Z,2.70
2023-05-01T17:23:32.645Z,2.13
2023-05-01T17:26:06.749Z,2.50
2023-05-01T17:28:40.052Z,2.10
2023-05-01T17:31:14.821Z,3.90
2023-05-01T17:33:49.214Z,4.17
2023-05-01T17:36:23.837Z,3.30
2023-05-01T17:38:57.312Z,3.60
2023-05-01T17:41:30.780Z,2.23
2023-05-01T17:44:03.968Z,2.30
2023-05-01T17:46:38.871Z,4.27
2023-05-01T17:49:12.142Z,3.17
2023-05-01T17:51:45.506Z,3.40
2023-05-01T17:54:19.531Z,2.80
2023-05-01T17:56:52.783Z,2.77
2023-05-01T17:59:26.285Z,3.10
2023-05-01T18:01:59.634Z,4.23
2023-05-01T18:04:33.226Z,3.23
2023-05-01T18:07:07.812Z,2.80
2023-05-01T18:09:41.287Z,3.07
2023-05-01T18:12:14.685Z,3.43
2023-05-01T18:14:48.012Z,2.70
2023-05-01T18:17:24.531Z,3.13
2023-05-01T18:19:57.956Z,3.97
2023-05-01T18:22:31.388Z,4.27
2023-05-01T18:25:05.155Z,3.70
2023-05-01T18:27:38.883Z,5.07
2023-05-01T18:30:12.189Z,4.23
2023-05-01T18:32:48.780Z,3.63
2023-05-01T18:35:22.317Z,2.90
2023-05-01T18:37:55.552Z,2.87
2023-05-01T18:40:28.926Z,2.60
2023-05-01T18:43:02.262Z,3.53
2023-05-01T18:45:35.488Z,2.30
2023-05-01T18:48:08.951Z,3.13
2023-05-01T18:50:42.523Z,3.40
2023-05-01T18:53:15.832Z,3.13
2023-05-01T18:55:49.126Z,2.80
2023-05-01T18:58:22.422Z,3.13
2023-05-01T19:00:56.050Z,3.33
2023-05-01T19:03:29.308Z,3.93
2023-05-01T19:06:02.584Z,4.87
2023-05-01T19:08:35.763Z,3.87
2023-05-01T19:11:08.979Z,3.50
2023-05-01T19:13:42.169Z,2.77
2023-05-01T19:16:15.552Z,2.80
2023-05-01T19:18:48.901Z,3.90
2023-05-01T19:21:22.189Z,5.03
2023-05-01T19:23:56.388Z,5.13
2023-05-01T19:26:29.631Z,7.87
2023-05-01T19:29:02.878Z,9.90
2023-05-01T19:31:36.208Z,6.47
2023-05-01T19:34:09.490Z,5.90
2023-05-01T19:36:42.726Z,3.97
2023-05-01T19:39:16.231Z,2.40
2023-05-01T19:41:49.488Z,3.50
2023-05-01T19:44:22.780Z,3.10
2023-05-01T19:46:56.046Z,3.10
2023-05-01T19:49:29.266Z,4.67
2023-05-01T19:52:02.520Z,5.97
2023-05-01T19:54:35.715Z,5.37
2023-05-01T19:57:09.253Z,5.17
2023-05-01T19:59:42.821Z,6.00
2023-05-01T20:02:16.296Z,4.40
2023-05-01T20:04:49.708Z,4.00
2023-05-01T20:07:22.995Z,4.03
2023-05-01T20:09:56.457Z,4.73
2023-05-01T20:12:30.471Z,3.20
2023-05-01T20:15:04.412Z,4.00
2023-05-01T20:17:37.659Z,3.20
2023-05-01T20:20:11.277Z,2.47
2023-05-01T20:22:44.801Z,3.50
2023-05-01T20:25:18.026Z,3.60
2023-05-01T20:27:51.292Z,2.60
2023-05-01T20:30:24.561Z,3.07
2023-05-01T20:32:57.930Z,2.30
2023-05-01T20:35:33.744Z,3.33
2023-05-01T20:38:07.404Z,3.33
2023-05-01T20:40:41.025Z,3.00
2023-05-01T20:43:14.338Z,3.37
2023-05-01T20:45:47.540Z,3.33
2023-05-01T20:48:21.028Z,5.10
2023-05-01T20:50:54.352Z,3.50
2023-05-01T20:53:27.594Z,4.47
2023-05-01T20:56:00.806Z,3.70
2023-05-01T20:58:34.066Z,3.60
2023-05-01T21:01:08.065Z,4.20
2023-05-01T21:03:41.865Z,4.50
2023-05-01T21:06:16.017Z,4.00
2023-05-01T21:08:49.259Z,4.43
2023-05-01T21:11:22.528Z,4.53
2023-05-01T21:13:58.125Z,3.90
2023-05-01T21:16:33.924Z,4.20
2023-05-01T21:19:07.625Z,5.80
2023-05-01T21:21:40.894Z,3.83
2023-05-01T21:24:17.453Z,5.07
2023-05-01T21:26:51.369Z,4.90
2023-05-01T21:29:24.732Z,4.70
2023-05-01T21:31:58.100Z,4.07
2023-05-01T21:34:31.422Z,3.80
2023-05-01T21:37:04.677Z,4.63
2023-05-01T21:39:37.951Z,5.80
2023-05-01T21:42:13.152Z,4.67
2023-05-01T21:44:46.396Z,4.57
2023-05-01T21:47:19.776Z,4.10
2023-05-01T21:49:59.349Z,4.37
2023-05-01T21:52:33.471Z,4.07
2023-05-01T21:55:10.632Z,4.40
2023-05-01T21:57:43.940Z,3.90
2023-05-01T22:00:18.930Z,5.43
2023-05-01T22:02:52.772Z,3.80
2023-05-01T22:05:29.172Z,5.00
2023-05-01T22:08:02.593Z,4.27
2023-05-01T22:10:36.449Z,5.10
2023-05-01T22:13:09.665Z,3.60
2023-05-01T22:15:42.891Z,4.63
2023-05-01T22:18:19.469Z,4.80
2023-05-01T22:20:53.126Z,4.63
2023-05-01T22:23:26.386Z,4.10
2023-05-01T22:26:00.280Z,3.50
2023-05-01T22:28:33.645Z,6.10
2023-05-01T22:31:07.658Z,4.10
2023-05-01T22:33:41.061Z,4.67
2023-05-01T22:36:14.401Z,5.40
2023-05-01T22:38:47.656Z,4.13
2023-05-01T22:41:20.901Z,4.77
2023-05-01T22:43:54.350Z,4.20
2023-05-01T22:46:27.835Z,4.20
2023-05-01T22:49:03.301Z,5.17
2023-05-01T22:51:36.514Z,4.47
2023-05-01T22:54:09.815Z,4.07
2023-05-01T22:56:43.696Z,5.60
2023-05-01T22:59:17.673Z,4.03
2023-05-01T23:01:50.913Z,4.90
2023-05-01T23:04:24.217Z,3.80
2023-05-01T23:06:57.655Z,5.20
2023-05-01T23:09:32.396Z,4.80
2023-05-01T23:12:06.897Z,4.83
2023-05-01T23:14:42.648Z,4.27
2023-05-01T23:17:16.307Z,5.10
2023-05-01T23:19:49.521Z,5.70
2023-05-01T23:22:23.154Z,5.17
2023-05-01T23:24:56.662Z,4.77
2023-05-01T23:27:29.944Z,5.70
2023-05-01T23:30:05.885Z,5.50
2023-05-01T23:32:40.475Z,5.33
2023-05-01T23:35:14.867Z,5.93
2023-05-01T23:37:49.288Z,5.87
2023-05-01T23:40:22.484Z,5.83
2023-05-01T23:42:55.751Z,5.80
2023-05-01T23:45:29.061Z,4.60
2023-05-01T23:48:03.638Z,4.80
2023-05-01T23:50:37.203Z,5.60
2023-05-01T23:53:11.390Z,5.10
2023-05-01T23:55:46.762Z,3.90
2023-05-01T23:58:20.402Z,6.70
